Time;durP1;ratioP1;P1;durP2;ratioP2;P2;SDS_P1;SDS_P2;PMS_P1;PMS_P2;Temp;Humidity;BMP_temperature;BMP_pressure;BME280_temperature;BME280_humidity;BME280_pressure;Samples;Min_cycle;Max_cycle;Signal;HPM_P1;HPM_P2
2022/01/06 00:02:21;;;;;;;1.05;0.70;;;4.90;82.00;;;;;;5095473;28;20027;-19
2022/01/06 00:04:47;;;;;;;3.45;0.93;;;4.90;82.30;;;;;;5095674;28;20036;-20
2022/01/06 00:07:12;;;;;;;2.28;0.80;;;4.90;82.40;;;;;;5095947;28;20024;-20
2022/01/06 00:09:38;;;;;;;0.60;0.60;;;4.90;82.50;;;;;;5095953;28;20464;-20
2022/01/06 00:12:05;;;;;;;0.50;0.50;;;4.80;82.50;;;;;;5095654;28;20048;-20
2022/01/06 00:14:51;;;;;;;1.98;0.70;;;4.80;82.50;;;;;;5095700;28;20105;-20
2022/01/06 00:17:36;;;;;;;0.80;0.50;;;4.80;82.80;;;;;;5095723;28;20123;-20
2022/01/06 00:25:31;;;;;;;0.52;0.50;;;4.80;82.50;;;;;;5095795;28;20530;-20
2022/01/06 00:27:57;;;;;;;0.47;0.47;;;4.80;82.30;;;;;;5095242;28;20498;-20
2022/01/06 00:30:22;;;;;;;1.20;0.77;;;4.80;82.00;;;;;;5094922;28;20032;-20
2022/01/06 00:32:48;;;;;;;0.50;0.50;;;4.80;82.20;;;;;;5095190;28;20023;-20
2022/01/06 00:35:14;;;;;;;0.50;0.50;;;4.80;82.50;;;;;;5095106;28;20024;-20
2022/01/06 00:37:40;;;;;;;0.55;0.55;;;4.70;82.20;;;;;;5093849;28;20021;-20
2022/01/06 00:40:07;;;;;;;1.52;0.70;;;4.70;82.40;;;;;;5095126;28;20036;-20
2022/01/06 00:42:33;;;;;;;0.90;0.63;;;4.70;82.30;;;;;;5094747;28;20391;-20
2022/01/06 00:44:59;;;;;;;0.70;0.70;;;4.70;82.30;;;;;;5094913;28;20028;-20
2022/01/06 00:47:25;;;;;;;0.55;0.50;;;4.70;82.30;;;;;;5094749;28;20022;-19
2022/01/06 00:49:50;;;;;;;0.77;0.50;;;4.70;82.10;;;;;;5094808;28;20090;-20
2022/01/06 00:52:16;;;;;;;0.73;0.50;;;4.70;82.30;;;;;;5094821;28;20047;-20
2022/01/06 00:54:42;;;;;;;0.85;0.50;;;4.70;81.60;;;;;;5095237;28;20038;-20
2022/01/06 00:57:08;;;;;;;0.50;0.30;;;4.60;82.00;;;;;;5094963;28;20450;-20
2022/01/06 00:59:34;;;;;;;1.25;0.50;;;4.60;81.50;;;;;;5094602;28;20111;-20
2022/01/06 01:02:00;;;;;;;0.55;0.40;;;4.60;81.80;;;;;;5094998;28;20111;-20
2022/01/06 01:04:26;;;;;;;1.10;0.32;;;4.50;81.60;;;;;;5093027;28;20492;-20
2022/01/06 01:06:52;;;;;;;0.60;0.40;;;4.50;81.60;;;;;;5094499;28;20019;-20
2022/01/06 01:09:18;;;;;;;0.30;0.30;;;4.50;81.80;;;;;;5095044;28;20031;-20
2022/01/06 01:11:43;;;;;;;0.60;0.30;;;4.50;82.10;;;;;;5094468;28;20024;-20
2022/01/06 01:14:25;;;;;;;0.38;0.38;;;4.40;82.00;;;;;;5095220;28;20020;-20
2022/01/06 01:17:14;;;;;;;0.73;0.30;;;4.40;81.90;;;;;;5094230;28;20476;-20
2022/01/06 01:19:40;;;;;;;0.35;0.35;;;4.40;81.90;;;;;;5094220;28;20115;-20
2022/01/06 01:22:08;;;;;;;0.30;0.30;;;4.40;82.10;;;;;;5094197;28;20058;-20
2022/01/06 01:24:34;;;;;;;0.50;0.50;;;4.40;81.90;;;;;;5093858;28;20040;-20
2022/01/06 01:27:00;;;;;;;0.57;0.40;;;4.40;81.80;;;;;;5094189;28;20157;-20
2022/01/06 01:29:28;;;;;;;0.68;0.30;;;4.40;81.80;;;;;;5093677;28;20028;-20
2022/01/06 01:31:55;;;;;;;0.40;0.40;;;4.40;81.60;;;;;;5093976;28;20035;-20
2022/01/06 01:34:26;;;;;;;0.50;0.50;;;4.40;81.40;;;;;;5094034;28;20066;-20
2022/01/06 01:36:55;;;;;;;0.35;0.35;;;4.40;81.40;;;;;;5094215;28;20028;-20
2022/01/06 01:39:23;;;;;;;0.30;0.30;;;4.40;81.20;;;;;;5094267;28;20161;-20
2022/01/06 01:41:50;;;;;;;0.40;0.40;;;4.40;81.40;;;;;;5094124;28;20051;-20
2022/01/06 01:44:20;;;;;;;0.30;0.30;;;4.30;81.50;;;;;;5093495;28;20085;-20
2022/01/06 01:47:14;;;;;;;1.77;0.55;;;4.30;81.50;;;;;;5094015;28;20032;-20
2022/01/06 01:49:50;;;;;;;0.50;0.40;;;4.30;81.70;;;;;;5093597;28;20028;-20
2022/01/06 01:52:16;;;;;;;0.45;0.30;;;4.30;81.80;;;;;;5093814;28;20083;-20
2022/01/06 01:54:43;;;;;;;0.70;0.40;;;4.30;81.90;;;;;;5093713;28;20487;-20
2022/01/06 01:57:09;;;;;;;0.30;0.30;;;4.30;81.90;;;;;;5093915;28;20111;-20
2022/01/06 01:59:35;;;;;;;0.43;0.40;;;4.30;81.90;;;;;;5093563;28;20074;-20
2022/01/06 02:02:01;;;;;;;0.35;0.35;;;4.30;82.00;;;;;;5093453;28;20032;-20
2022/01/06 02:04:27;;;;;;;0.40;0.40;;;4.30;82.00;;;;;;5093264;28;20047;-20
2022/01/06 02:06:53;;;;;;;0.55;0.40;;;4.30;81.90;;;;;;5092286;28;20077;-20
2022/01/06 02:09:18;;;;;;;0.55;0.30;;;4.40;81.90;;;;;;5093766;28;20020;-20
2022/01/06 02:11:45;;;;;;;0.30;0.30;;;4.40;81.80;;;;;;5093418;28;20062;-20
2022/01/06 02:14:11;;;;;;;0.50;0.40;;;4.40;81.90;;;;;;5093725;28;20042;-20
2022/01/06 02:16:39;;;;;;;1.85;0.32;;;4.40;81.80;;;;;;5093032;28;20024;-20
2022/01/06 02:19:05;;;;;;;0.40;0.40;;;4.40;81.70;;;;;;5093845;28;20097;-20
2022/01/06 02:21:31;;;;;;;0.70;0.65;;;4.50;81.60;;;;;;5093600;28;20027;-20
2022/01/06 02:23:57;;;;;;;0.73;0.32;;;4.50;81.60;;;;;;5092983;28;20059;-20
2022/01/06 02:26:23;;;;;;;0.40;0.40;;;4.60;81.40;;;;;;5093279;28;20028;-19
2022/01/06 02:28:50;;;;;;;0.30;0.30;;;4.60;81.40;;;;;;5091995;28;20035;-20
2022/01/06 02:31:16;;;;;;;0.40;0.40;;;4.60;81.20;;;;;;5093105;28;20028;-20
2022/01/06 02:33:42;;;;;;;0.50;0.50;;;4.70;81.10;;;;;;5093160;28;20559;-20
2022/01/06 02:36:08;;;;;;;0.20;0.20;;;4.70;81.00;;;;;;5091924;28;20116;-20
2022/01/06 02:38:34;;;;;;;0.28;0.28;;;4.80;81.00;;;;;;5093208;28;20468;-20
2022/01/06 02:41:01;;;;;;;0.80;0.35;;;4.70;80.90;;;;;;5091923;28;20035;-20
2022/01/06 02:43:29;;;;;;;0.75;0.40;;;4.80;80.90;;;;;;5092919;28;20040;-20
2022/01/06 02:45:55;;;;;;;0.80;0.70;;;4.80;80.90;;;;;;5092955;28;20032;-20
2022/01/06 02:48:21;;;;;;;0.95;0.40;;;4.80;80.90;;;;;;5093141;28;20031;-20
2022/01/06 02:50:49;;;;;;;0.47;0.45;;;4.80;80.90;;;;;;5093068;28;20528;-20
2022/01/06 02:53:17;;;;;;;0.55;0.43;;;4.90;80.90;;;;;;5093044;28;20050;-20
2022/01/06 02:55:50;;;;;;;0.52;0.30;;;4.90;80.80;;;;;;5092945;28;20024;-20
2022/01/06 02:58:21;;;;;;;0.40;0.40;;;4.90;80.70;;;;;;5093217;28;20027;-20
2022/01/06 03:00:48;;;;;;;0.40;0.30;;;4.90;80.60;;;;;;5093018;28;20490;-20
2022/01/06 03:03:15;;;;;;;0.40;0.40;;;4.90;80.60;;;;;;5093109;28;20102;-20
2022/01/06 03:05:41;;;;;;;1.10;0.40;;;4.90;80.60;;;;;;5094386;28;20024;-20
2022/01/06 03:08:07;;;;;;;0.30;0.30;;;4.90;80.60;;;;;;5097090;28;20035;-20
2022/01/06 03:10:37;;;;;;;0.55;0.40;;;4.90;80.60;;;;;;5096846;28;20082;-20
2022/01/06 03:13:03;;;;;;;0.50;0.43;;;4.90;80.70;;;;;;5097010;28;20028;-20
2022/01/06 03:15:29;;;;;;;0.50;0.50;;;4.90;80.70;;;;;;5097472;28;20103;-20
2022/01/06 03:17:56;;;;;;;0.30;0.30;;;4.90;80.80;;;;;;5096786;28;20110;-20
2022/01/06 03:20:25;;;;;;;0.50;0.50;;;4.90;80.80;;;;;;5096679;28;20051;-20
2022/01/06 03:22:53;;;;;;;1.02;0.50;;;4.90;80.80;;;;;;5096395;28;20048;-20
2022/01/06 03:25:20;;;;;;;0.52;0.50;;;4.90;80.80;;;;;;5096447;28;20430;-20
2022/01/06 03:27:46;;;;;;;0.60;0.60;;;4.90;80.80;;;;;;5096740;28;20035;-20
2022/01/06 03:30:17;;;;;;;1.15;0.52;;;4.90;80.70;;;;;;5096407;28;20020;-19
2022/01/06 03:32:43;;;;;;;0.57;0.57;;;4.90;80.60;;;;;;5096318;28;20016;-20
2022/01/06 03:35:12;;;;;;;0.47;0.47;;;5.00;80.70;;;;;;5096272;28;20020;-20
2022/01/06 03:37:40;;;;;;;0.75;0.60;;;5.00;80.60;;;;;;5096202;28;20032;-20
2022/01/06 03:40:07;;;;;;;1.42;0.70;;;4.90;80.70;;;;;;5096158;28;20020;-19
2022/01/06 03:42:35;;;;;;;1.10;1.00;;;4.90;80.70;;;;;;5095866;28;20043;-20
2022/01/06 03:45:05;;;;;;;0.40;0.40;;;4.90;80.70;;;;;;5096569;28;20111;-20
2022/01/06 03:47:31;;;;;;;0.50;0.40;;;4.90;80.70;;;;;;5096233;28;20017;-20
2022/01/06 03:49:57;;;;;;;0.40;0.40;;;4.90;80.60;;;;;;5096064;28;20028;-20
2022/01/06 03:52:26;;;;;;;0.45;0.40;;;4.90;80.70;;;;;;5096024;28;20051;-20
2022/01/06 03:54:51;;;;;;;0.57;0.50;;;4.90;80.60;;;;;;5096186;28;20016;-20
2022/01/06 03:57:18;;;;;;;0.32;0.32;;;4.90;80.60;;;;;;5096103;28;20028;-20
2022/01/06 03:59:44;;;;;;;0.50;0.30;;;5.00;80.60;;;;;;5096142;28;20032;-20
2022/01/06 04:02:10;;;;;;;0.50;0.50;;;5.00;80.50;;;;;;5096032;28;20501;-20
2022/01/06 04:04:37;;;;;;;0.50;0.50;;;5.00;80.50;;;;;;5095467;28;20384;-20
2022/01/06 04:07:04;;;;;;;1.95;0.90;;;5.00;80.40;;;;;;5096005;28;20051;-20
2022/01/06 04:09:30;;;;;;;1.10;0.75;;;5.00;80.50;;;;;;5095953;28;20032;-20
2022/01/06 04:11:56;;;;;;;1.17;0.70;;;5.00;80.50;;;;;;5095832;28;20464;-20
2022/01/06 04:14:22;;;;;;;1.05;0.60;;;5.00;80.50;;;;;;5095676;28;20099;-20
2022/01/06 04:16:48;;;;;;;1.80;0.43;;;5.00;80.60;;;;;;5095043;28;20114;-20
2022/01/06 04:19:14;;;;;;;0.50;0.50;;;4.90;80.50;;;;;;5095458;28;20025;-20
2022/01/06 04:21:40;;;;;;;0.50;0.50;;;4.90;80.50;;;;;;5095409;28;20024;-20
2022/01/06 04:24:06;;;;;;;0.80;0.80;;;4.90;80.60;;;;;;5095931;28;20127;-20
2022/01/06 04:26:32;;;;;;;1.10;1.00;;;4.90;80.60;;;;;;5095469;28;20028;-20
2022/01/06 04:28:58;;;;;;;0.95;0.77;;;4.90;80.70;;;;;;5095641;28;20395;-19
2022/01/06 04:31:23;;;;;;;1.02;0.70;;;4.90;80.70;;;;;;5095464;28;20024;-20
2022/01/06 04:33:50;;;;;;;0.80;0.80;;;4.90;80.80;;;;;;5095144;28;20391;-20
2022/01/06 04:36:16;;;;;;;0.50;0.50;;;4.90;80.70;;;;;;5095023;28;20078;-20
2022/01/06 04:38:41;;;;;;;0.60;0.60;;;4.90;80.70;;;;;;5095542;28;20032;-20
2022/01/06 04:41:07;;;;;;;1.58;1.02;;;4.90;80.70;;;;;;5094978;28;20034;-20
2022/01/06 04:43:33;;;;;;;0.75;0.75;;;4.90;80.70;;;;;;5095247;28;20028;-20
2022/01/06 04:46:00;;;;;;;0.88;0.82;;;4.90;80.80;;;;;;5095147;28;20020;-20
2022/01/06 04:48:26;;;;;;;0.77;0.77;;;4.90;80.80;;;;;;5094931;28;20030;-20
2022/01/06 04:50:52;;;;;;;1.77;1.63;;;4.90;80.90;;;;;;5095311;28;20399;-20
2022/01/06 04:53:17;;;;;;;1.30;1.20;;;4.80;80.80;;;;;;5095117;28;20024;-20
2022/01/06 04:55:43;;;;;;;1.30;1.20;;;4.80;80.90;;;;;;5095021;28;20387;-19
2022/01/06 04:58:09;;;;;;;1.38;0.98;;;4.80;81.00;;;;;;5094667;28;20024;-20
2022/01/06 05:00:35;;;;;;;0.90;0.82;;;4.80;81.00;;;;;;5094417;28;20501;-20
2022/01/06 05:03:02;;;;;;;1.27;0.70;;;4.80;81.00;;;;;;5094441;28;20028;-20
2022/01/06 05:05:28;;;;;;;1.20;1.10;;;4.80;81.00;;;;;;5094897;28;20095;-19
2022/01/06 05:07:53;;;;;;;0.93;0.90;;;4.80;81.00;;;;;;5094818;28;20027;-20
2022/01/06 05:10:19;;;;;;;1.48;0.73;;;4.80;80.90;;;;;;5094382;28;20395;-20
2022/01/06 05:12:46;;;;;;;0.70;0.70;;;4.80;80.90;;;;;;5094646;28;20048;-20
2022/01/06 05:15:14;;;;;;;2.33;1.00;;;4.80;80.90;;;;;;5094556;28;20020;-20
2022/01/06 05:17:41;;;;;;;1.65;1.00;;;4.80;80.80;;;;;;5094257;28;20036;-19
2022/01/06 05:20:08;;;;;;;0.95;0.80;;;4.80;80.80;;;;;;5094424;28;20448;-20
2022/01/06 05:22:41;;;;;;;3.35;1.00;;;4.80;80.90;;;;;;5093901;28;20055;-20
2022/01/06 05:25:08;;;;;;;2.83;1.98;;;4.80;80.90;;;;;;5094218;28;20403;-20
2022/01/06 05:27:34;;;;;;;2.10;1.60;;;4.70;81.00;;;;;;5094421;28;20031;-20
2022/01/06 05:30:00;;;;;;;1.10;1.00;;;4.70;81.10;;;;;;5094418;28;20020;-20
2022/01/06 05:32:26;;;;;;;2.00;1.38;;;4.70;81.00;;;;;;5094095;28;20036;-20
2022/01/06 05:34:52;;;;;;;1.42;1.20;;;4.70;81.00;;;;;;5094428;28;20062;-20
2022/01/06 05:37:18;;;;;;;2.28;1.52;;;4.70;81.10;;;;;;5093927;28;20073;-20
2022/01/06 05:39:44;;;;;;;2.83;2.25;;;4.70;81.00;;;;;;5092661;28;20020;-19
2022/01/06 05:42:13;;;;;;;1.90;1.48;;;4.70;81.00;;;;;;5093853;28;20032;-20
2022/01/06 05:44:42;;;;;;;2.38;1.90;;;4.70;81.10;;;;;;5093725;28;20068;-19
2022/01/06 05:47:09;;;;;;;2.78;1.83;;;4.70;81.10;;;;;;5094064;28;20028;-20
2022/01/06 05:49:35;;;;;;;2.85;1.63;;;4.70;81.40;;;;;;5094070;28;20032;-20
2022/01/06 05:52:01;;;;;;;1.60;1.45;;;4.60;81.20;;;;;;5093723;28;20131;-19
2022/01/06 05:54:27;;;;;;;2.40;2.00;;;4.60;81.10;;;;;;5093779;28;20031;-19
2022/01/06 05:56:53;;;;;;;2.83;2.03;;;4.60;81.10;;;;;;5094768;28;20020;-19
2022/01/06 05:59:18;;;;;;;2.10;1.90;;;4.60;81.10;;;;;;5092389;28;20376;-19
2022/01/06 06:01:46;;;;;;;2.78;2.08;;;4.50;81.10;;;;;;5093403;28;20035;-19
2022/01/06 06:04:13;;;;;;;3.40;2.50;;;4.60;81.20;;;;;;5093690;28;20496;-19
2022/01/06 06:06:39;;;;;;;4.03;2.97;;;4.50;81.20;;;;;;5093729;28;20024;-19
2022/01/06 06:09:06;;;;;;;3.53;2.65;;;4.50;81.40;;;;;;5093387;28;20487;-19
2022/01/06 06:11:32;;;;;;;5.20;3.25;;;4.50;81.40;;;;;;5093750;28;20028;-19
2022/01/06 06:13:59;;;;;;;7.85;4.53;;;4.50;81.40;;;;;;5093486;28;20069;-19
2022/01/06 06:16:25;;;;;;;6.00;3.95;;;4.50;81.60;;;;;;5093182;28;20020;-19
2022/01/06 06:18:51;;;;;;;7.03;4.15;;;4.50;81.50;;;;;;5093359;28;20024;-19
2022/01/06 06:21:17;;;;;;;6.80;4.32;;;4.40;81.60;;;;;;5093607;28;20361;-19
2022/01/06 06:23:43;;;;;;;6.45;3.95;;;4.40;81.60;;;;;;5093128;28;20510;-21
2022/01/06 06:26:11;;;;;;;6.10;3.72;;;4.40;81.60;;;;;;5092003;28;20082;-19
2022/01/06 06:28:38;;;;;;;5.47;3.67;;;4.40;81.60;;;;;;5093348;28;20101;-19
2022/01/06 06:31:04;;;;;;;6.95;4.40;;;4.40;81.50;;;;;;5093381;28;20028;-20
2022/01/06 06:33:30;;;;;;;5.60;3.72;;;4.40;81.50;;;;;;5093123;28;20501;-19
2022/01/06 06:35:56;;;;;;;7.63;5.00;;;4.40;81.70;;;;;;5093139;28;20103;-20
2022/01/06 06:38:22;;;;;;;8.57;5.53;;;4.40;81.60;;;;;;5093029;28;20107;-20
2022/01/06 06:40:48;;;;;;;8.35;4.80;;;4.40;81.80;;;;;;5096726;28;20419;-20
2022/01/06 06:43:15;;;;;;;8.77;5.22;;;4.40;81.80;;;;;;5097526;28;20039;-20
2022/01/06 06:45:42;;;;;;;8.63;5.43;;;4.40;81.80;;;;;;5097225;28;20480;-20
2022/01/06 06:48:09;;;;;;;9.10;5.38;;;4.40;81.70;;;;;;5097284;28;20677;-19
2022/01/06 06:50:35;;;;;;;9.73;6.22;;;4.40;81.80;;;;;;5096934;28;20028;-20
2022/01/06 06:53:02;;;;;;;9.05;5.78;;;4.40;81.90;;;;;;5097325;28;20016;-20
2022/01/06 06:55:29;;;;;;;7.95;5.60;;;4.30;82.00;;;;;;5097031;28;20024;-20
2022/01/06 06:57:55;;;;;;;10.85;7.03;;;4.30;82.00;;;;;;5097273;28;20032;-20
2022/01/06 07:00:22;;;;;;;9.68;6.85;;;4.30;82.20;;;;;;5097058;28;20106;-20
2022/01/06 07:02:48;;;;;;;9.75;5.82;;;4.30;82.10;;;;;;5096745;28;20551;-20
2022/01/06 07:05:15;;;;;;;10.40;6.22;;;4.30;82.00;;;;;;5097698;28;20123;-20
2022/01/06 07:07:43;;;;;;;11.10;7.55;;;4.30;82.00;;;;;;5097134;28;20094;-19
2022/01/06 07:10:10;;;;;;;11.48;6.88;;;4.30;82.10;;;;;;5096925;28;20387;-20
2022/01/06 07:12:40;;;;;;;10.90;6.88;;;4.30;82.10;;;;;;5096816;28;20028;-20
2022/01/06 07:15:08;;;;;;;11.35;7.13;;;4.30;82.00;;;;;;5096958;28;20066;-20
2022/01/06 07:17:34;;;;;;;10.88;7.32;;;4.30;82.10;;;;;;5095870;28;20047;-20
2022/01/06 07:20:00;;;;;;;10.65;7.35;;;4.30;82.10;;;;;;5097058;28;20476;-19
2022/01/06 07:22:25;;;;;;;10.35;6.85;;;4.20;82.40;;;;;;5096687;28;20052;-20
2022/01/06 07:24:51;;;;;;;11.82;7.47;;;4.30;82.30;;;;;;5096473;28;20418;-20
2022/01/06 07:27:18;;;;;;;9.13;6.00;;;4.30;82.60;;;;;;5096454;28;20034;-20
2022/01/06 07:29:43;;;;;;;11.82;7.45;;;4.20;82.40;;;;;;5096666;28;20369;-19
2022/01/06 07:32:09;;;;;;;12.15;8.00;;;4.30;82.30;;;;;;5096566;28;20077;-20
2022/01/06 07:34:35;;;;;;;9.88;6.50;;;4.30;82.40;;;;;;5096059;28;20031;-20
2022/01/06 07:37:03;;;;;;;11.90;7.35;;;4.40;82.40;;;;;;5096257;28;20072;-19
2022/01/06 07:39:29;;;;;;;10.38;6.68;;;4.40;82.40;;;;;;5097075;28;20032;-20
2022/01/06 07:41:55;;;;;;;11.85;8.05;;;4.40;82.20;;;;;;5096170;28;20471;-20
2022/01/06 07:44:21;;;;;;;12.15;7.35;;;4.40;82.20;;;;;;5095878;28;20059;-20
2022/01/06 07:46:47;;;;;;;14.35;8.43;;;4.40;82.00;;;;;;5096297;28;20110;-20
2022/01/06 07:49:14;;;;;;;12.85;9.15;;;4.50;81.90;;;;;;5096032;28;20031;-20
2022/01/06 07:51:40;;;;;;;10.18;6.72;;;4.50;81.80;;;;;;5095503;28;20051;-19
2022/01/06 07:54:07;;;;;;;13.30;8.13;;;4.50;81.70;;;;;;5096028;28;20027;-20
2022/01/06 07:56:34;;;;;;;10.70;6.38;;;4.40;81.70;;;;;;5096071;28;20169;-20
2022/01/06 07:59:00;;;;;;;11.38;7.45;;;4.40;81.80;;;;;;5096130;28;20024;-20
2022/01/06 08:01:26;;;;;;;9.68;6.25;;;4.40;81.80;;;;;;5095727;28;20028;-20
2022/01/06 08:03:53;;;;;;;10.98;6.97;;;4.50;81.60;;;;;;5094445;28;20492;-20
2022/01/06 08:06:19;;;;;;;11.23;6.72;;;4.50;81.80;;;;;;5095531;28;20032;-20
2022/01/06 08:08:46;;;;;;;13.05;8.93;;;4.50;81.70;;;;;;5094459;28;20476;-20
2022/01/06 08:11:13;;;;;;;11.68;7.78;;;4.60;81.90;;;;;;5095583;28;20027;-20
2022/01/06 08:13:40;;;;;;;12.50;7.63;;;4.60;81.90;;;;;;5095898;28;20364;-20
2022/01/06 08:16:07;;;;;;;11.63;7.35;;;4.60;81.90;;;;;;5095466;28;20024;-20
2022/01/06 08:18:33;;;;;;;14.38;9.30;;;4.70;82.00;;;;;;5095402;28;20054;-19
2022/01/06 08:20:59;;;;;;;13.13;9.23;;;4.70;82.00;;;;;;5095761;28;20479;-20
2022/01/06 08:23:26;;;;;;;15.05;10.05;;;4.80;82.10;;;;;;5095093;28;20047;-20
2022/01/06 08:25:53;;;;;;;13.20;8.27;;;4.80;82.10;;;;;;5095643;28;20036;-20
2022/01/06 08:28:19;;;;;;;14.93;9.57;;;4.90;82.00;;;;;;5095386;28;20484;-20
2022/01/06 08:30:47;;;;;;;14.57;8.80;;;5.10;82.00;;;;;;5095309;28;20024;-20
2022/01/06 08:33:15;;;;;;;14.00;9.45;;;5.20;82.00;;;;;;5095110;28;20107;-19
2022/01/06 08:35:42;;;;;;;14.05;9.65;;;5.40;81.90;;;;;;5095414;28;20028;-20
2022/01/06 08:38:08;;;;;;;17.73;10.68;;;5.50;81.60;;;;;;5095398;28;20020;-20
2022/01/06 08:40:34;;;;;;;16.50;10.20;;;5.70;81.40;;;;;;5095203;28;20088;-20
2022/01/06 08:43:00;;;;;;;16.20;10.93;;;5.80;80.70;;;;;;5094911;28;20039;-20
2022/01/06 08:45:26;;;;;;;16.05;10.88;;;5.90;80.50;;;;;;5094988;28;20023;-20
2022/01/06 08:47:52;;;;;;;15.05;9.80;;;6.00;80.20;;;;;;5094743;28;20035;-20
2022/01/06 08:50:17;;;;;;;14.95;8.95;;;6.00;79.70;;;;;;5094698;28;20032;-20
2022/01/06 08:52:43;;;;;;;15.05;10.68;;;6.00;79.60;;;;;;5093555;28;20032;-20
2022/01/06 08:55:10;;;;;;;17.98;10.35;;;6.00;79.40;;;;;;5095041;28;20103;-20
2022/01/06 08:57:37;;;;;;;13.20;8.25;;;6.00;79.10;;;;;;5094737;28;20063;-20
2022/01/06 09:00:08;;;;;;;11.80;7.78;;;6.00;79.40;;;;;;5095013;28;20032;-20
2022/01/06 09:02:33;;;;;;;16.80;10.93;;;6.00;79.40;;;;;;5093867;28;20052;-20
2022/01/06 09:05:02;;;;;;;13.32;9.05;;;6.00;79.50;;;;;;5094284;28;20457;-19
2022/01/06 09:07:28;;;;;;;11.93;7.78;;;6.00;79.40;;;;;;5093367;28;20039;-20
2022/01/06 09:09:54;;;;;;;13.82;8.77;;;6.00;79.60;;;;;;5094387;28;20485;-19
2022/01/06 09:12:20;;;;;;;12.10;7.38;;;6.00;79.60;;;;;;5094226;28;20090;-20
2022/01/06 09:14:46;;;;;;;14.48;9.15;;;6.10;79.70;;;;;;5093160;28;20118;-20
2022/01/06 09:17:14;;;;;;;16.65;9.52;;;6.20;79.80;;;;;;5094541;28;20050;-20
2022/01/06 09:19:39;;;;;;;16.42;10.88;;;6.30;79.70;;;;;;5094529;28;20027;-20
2022/01/06 09:22:06;;;;;;;13.85;9.73;;;6.40;79.70;;;;;;5094082;28;20093;-20
2022/01/06 09:24:32;;;;;;;13.52;8.48;;;6.60;79.70;;;;;;5093784;28;20040;-20
2022/01/06 09:27:01;;;;;;;14.93;10.77;;;6.70;79.30;;;;;;5094155;28;20032;-19
2022/01/06 09:29:27;;;;;;;13.45;8.90;;;6.80;79.10;;;;;;5094474;28;20027;-19
2022/01/06 09:31:53;;;;;;;15.85;10.82;;;6.90;78.70;;;;;;5094302;28;20133;-20
2022/01/06 09:34:19;;;;;;;14.32;8.82;;;7.00;78.70;;;;;;5094003;28;20480;-21
2022/01/06 09:36:45;;;;;;;13.88;10.05;;;7.20;78.50;;;;;;5094325;28;20028;-20
2022/01/06 09:39:13;;;;;;;12.75;7.90;;;7.30;78.20;;;;;;5094233;28;20475;-19
2022/01/06 09:41:39;;;;;;;14.25;8.65;;;7.50;78.20;;;;;;5093934;28;20177;-20
2022/01/06 09:44:07;;;;;;;13.25;8.60;;;7.70;78.10;;;;;;5094100;28;20080;-20
2022/01/06 09:46:33;;;;;;;13.25;8.13;;;7.90;77.40;;;;;;5093586;28;20119;-20
2022/01/06 09:49:00;;;;;;;14.13;8.70;;;8.10;77.70;;;;;;5094631;28;20024;-19
2022/01/06 09:51:31;;;;;;;11.80;8.25;;;8.30;77.50;;;;;;5094063;28;20028;-20
2022/01/06 09:53:59;;;;;;;13.50;9.07;;;8.60;76.10;;;;;;5094395;28;20047;-20
2022/01/06 09:56:27;;;;;;;14.07;8.65;;;8.90;75.40;;;;;;5093527;28;20020;-20
2022/01/06 09:58:57;;;;;;;15.35;9.73;;;9.10;75.20;;;;;;5093638;28;20484;-20
2022/01/06 10:01:24;;;;;;;12.85;8.48;;;9.30;74.20;;;;;;5093541;28;20498;-19
2022/01/06 10:03:50;;;;;;;12.65;7.95;;;9.50;74.20;;;;;;5093927;28;20032;-20
2022/01/06 10:06:17;;;;;;;10.77;7.60;;;9.70;72.90;;;;;;5093382;28;20024;-20
2022/01/06 10:08:53;;;;;;;12.18;7.43;;;9.90;73.20;;;;;;5093792;28;20523;-20
2022/01/06 10:11:25;;;;;;;11.10;7.03;;;10.00;71.90;;;;;;5093809;28;20032;-19
2022/01/06 10:14:00;;;;;;;12.23;7.18;;;10.20;72.60;;;;;;5093471;28;20103;-20
2022/01/06 10:16:31;;;;;;;10.10;6.60;;;10.30;71.80;;;;;;5093535;28;20027;-20
2022/01/06 10:19:03;;;;;;;15.48;9.20;;;10.40;71.30;;;;;;5093737;28;20027;-20
2022/01/06 10:21:33;;;;;;;10.40;6.55;;;10.60;71.50;;;;;;5093936;28;20028;-19
2022/01/06 10:24:11;;;;;;;9.45;6.18;;;10.70;71.30;;;;;;5092945;28;20473;-20
2022/01/06 10:27:10;;;;;;;8.57;5.72;;;10.80;70.50;;;;;;5092338;28;20048;-20
2022/01/06 10:29:42;;;;;;;7.03;4.80;;;11.00;69.70;;;;;;5092948;28;20028;-20
2022/01/06 10:32:13;;;;;;;7.63;5.40;;;11.20;68.30;;;;;;5093406;28;20468;-20
2022/01/06 10:34:45;;;;;;;10.40;7.25;;;11.40;69.30;;;;;;5093459;28;20043;-20
2022/01/06 10:37:16;;;;;;;10.43;6.78;;;11.60;69.90;;;;;;5093476;28;20030;-19
2022/01/06 10:39:44;;;;;;;7.88;5.63;;;11.80;69.30;;;;;;5093733;28;20055;-20
2022/01/06 10:42:11;;;;;;;6.53;4.78;;;11.90;68.20;;;;;;5093255;28;20460;-19
2022/01/06 10:44:53;;;;;;;8.30;5.43;;;12.00;68.50;;;;;;5092819;28;20492;-20
2022/01/06 10:47:30;;;;;;;5.22;3.50;;;12.20;67.00;;;;;;5092939;28;20376;-19
2022/01/06 10:50:25;;;;;;;7.97;5.20;;;12.40;69.20;;;;;;5093344;28;20039;-20
2022/01/06 10:52:55;;;;;;;8.07;5.30;;;12.60;67.40;;;;;;5093634;28;20020;-20
2022/01/06 10:55:32;;;;;;;3.92;3.17;;;12.80;67.70;;;;;;5092898;28;20020;-20
2022/01/06 10:58:02;;;;;;;9.32;6.10;;;13.00;68.00;;;;;;5093187;28;20470;-20
2022/01/06 11:00:42;;;;;;;6.97;4.40;;;13.40;67.10;;;;;;5091521;28;20040;-20
2022/01/06 11:03:24;;;;;;;7.88;5.38;;;13.60;65.40;;;;;;5092991;28;20115;-20
2022/01/06 11:05:56;;;;;;;6.43;4.30;;;14.00;63.20;;;;;;5093087;28;20024;-20
2022/01/06 11:08:26;;;;;;;6.43;4.70;;;14.30;64.80;;;;;;5092896;28;20013;-20
2022/01/06 11:13:45;;;;;;;8.20;4.65;;;14.80;61.40;;;;;;5092935;28;20024;-20
2022/01/06 11:16:15;;;;;;;7.05;4.68;;;15.00;61.20;;;;;;5092782;28;20024;-20
2022/01/06 11:18:48;;;;;;;5.63;4.00;;;15.00;58.60;;;;;;5093111;28;20020;-20
2022/01/06 11:21:17;;;;;;;5.20;3.33;;;15.10;58.50;;;;;;5093134;28;20103;-20
2022/01/06 11:23:43;;;;;;;5.40;3.42;;;15.30;60.00;;;;;;5092726;28;20052;-20
2022/01/06 11:26:15;;;;;;;3.85;2.70;;;15.50;59.40;;;;;;5093477;28;20059;-20
2022/01/06 11:28:44;;;;;;;4.40;2.78;;;15.80;59.60;;;;;;5096694;28;20048;-20
2022/01/06 11:31:18;;;;;;;4.25;3.00;;;16.10;57.80;;;;;;5096638;28;20438;-20
2022/01/06 11:33:47;;;;;;;3.78;2.78;;;16.50;57.80;;;;;;5095713;28;20069;-20
2022/01/06 11:36:31;;;;;;;3.92;2.95;;;16.90;56.90;;;;;;5096443;28;20035;-20
2022/01/06 11:39:02;;;;;;;2.30;2.10;;;17.40;55.80;;;;;;5096366;28;20020;-20
2022/01/06 11:41:41;;;;;;;4.15;2.95;;;17.70;56.10;;;;;;5096556;28;20028;-20
2022/01/06 11:44:21;;;;;;;2.72;2.28;;;18.10;54.80;;;;;;5096359;28;20074;-20
2022/01/06 11:46:50;;;;;;;2.58;2.20;;;18.50;54.50;;;;;;5096398;28;20085;-20
2022/01/06 11:49:36;;;;;;;3.10;2.42;;;18.90;53.40;;;;;;5096078;28;20103;-20
2022/01/06 11:52:11;;;;;;;5.40;3.00;;;19.30;52.00;;;;;;5095943;28;20426;-20
2022/01/06 11:54:50;;;;;;;3.08;2.28;;;19.70;51.10;;;;;;5095846;28;20107;-20
2022/01/06 11:57:40;;;;;;;3.75;2.97;;;20.00;49.30;;;;;;5095974;28;20364;-21
2022/01/06 12:00:21;;;;;;;2.95;2.40;;;20.40;45.40;;;;;;5095919;28;20494;-20
2022/01/06 12:03:02;;;;;;;3.70;2.70;;;20.60;45.60;;;;;;5095715;28;20042;-20
2022/01/06 12:05:41;;;;;;;4.03;2.95;;;20.90;43.60;;;;;;5096089;28;20028;-21
2022/01/06 12:08:08;;;;;;;3.22;2.33;;;21.10;45.30;;;;;;5095802;28;20032;-21
2022/01/06 12:10:42;;;;;;;2.53;2.15;;;21.30;46.10;;;;;;5095533;28;20024;-21
2022/01/06 12:13:09;;;;;;;3.42;2.60;;;21.40;46.10;;;;;;5095835;28;20027;-21
2022/01/06 12:15:46;;;;;;;2.65;2.25;;;21.60;46.70;;;;;;5095547;28;20553;-21
2022/01/06 12:18:22;;;;;;;4.47;3.00;;;21.80;44.60;;;;;;5095491;28;20020;-21
2022/01/06 12:20:49;;;;;;;5.32;3.25;;;21.90;43.50;;;;;;5095536;28;20032;-21
2022/01/06 12:23:17;;;;;;;4.05;3.03;;;22.10;43.50;;;;;;5093904;28;20377;-21
2022/01/06 12:25:58;;;;;;;4.95;2.53;;;22.30;42.70;;;;;;5096236;28;20035;-22
2022/01/06 12:28:26;;;;;;;4.10;2.60;;;22.40;42.70;;;;;;5094045;28;20023;-22
2022/01/06 12:31:01;;;;;;;2.20;2.00;;;22.60;43.10;;;;;;5095487;28;20028;-22
2022/01/06 12:33:28;;;;;;;2.58;1.88;;;22.70;40.10;;;;;;5095139;28;20036;-23
2022/01/06 12:35:56;;;;;;;2.80;1.90;;;22.90;42.00;;;;;;5095443;28;20418;-22
2022/01/06 12:38:28;;;;;;;1.83;1.63;;;22.90;40.10;;;;;;5094808;28;20472;-23
2022/01/06 12:40:55;;;;;;;2.72;1.90;;;22.80;40.70;;;;;;5095340;28;20028;-23
2022/01/06 12:43:24;;;;;;;2.58;2.05;;;22.60;39.70;;;;;;5094977;28;20035;-23
2022/01/06 12:46:16;;;;;;;3.05;2.25;;;22.40;40.20;;;;;;5095289;28;20064;-23
2022/01/06 12:48:44;;;;;;;1.75;1.60;;;22.00;34.70;;;;;;5095324;28;20452;-23
2022/01/06 12:51:13;;;;;;;2.00;1.45;;;21.40;40.30;;;;;;5095269;28;20028;-24
2022/01/06 12:53:44;;;;;;;1.73;1.33;;;20.90;41.20;;;;;;5093934;28;20139;-24
2022/01/06 12:56:32;;;;;;;1.63;1.23;;;20.40;41.60;;;;;;5095135;28;20070;-23
2022/01/06 12:59:00;;;;;;;0.98;0.98;;;19.90;38.30;;;;;;5095161;28;20031;-24
2022/01/06 13:01:28;;;;;;;1.35;1.25;;;19.60;43.60;;;;;;5094574;28;20024;-28
2022/01/06 13:03:55;;;;;;;1.50;1.20;;;19.40;43.20;;;;;;5094831;28;20032;-25
2022/01/06 13:06:23;;;;;;;2.03;0.98;;;19.20;43.20;;;;;;5094674;28;20028;-25
2022/01/06 13:08:54;;;;;;;1.48;1.20;;;19.10;44.30;;;;;;5094864;28;20034;-25